createdAt,value
2022-11-15T03:35:27.962Z,99999.22
2022-11-15T03:38:24.685Z,99997.50
2022-11-15T03:41:16.259Z,99992.66
2022-11-15T03:43:58.393Z,100001.25
2022-11-15T03:46:38.755Z,99999.06
2022-11-15T03:49:11.971Z,100010.34
2022-11-15T03:51:38.900Z,100017.91
2022-11-15T03:54:05.975Z,100006.28
2022-11-15T03:56:33.057Z,100014.13
2022-11-15T03:58:59.612Z,100010.34
2022-11-15T04:01:26.201Z,100013.63
2022-11-15T04:03:52.696Z,100019.44
2022-11-15T04:06:19.361Z,100015.81
2022-11-15T04:08:45.787Z,100008.97
2022-11-15T04:11:12.296Z,100012.06
2022-11-15T04:13:39.248Z,100013.13
2022-11-15T04:16:05.892Z,100009.28
2022-11-15T04:18:32.334Z,100014.88
2022-11-15T04:21:17.484Z,100015.28
2022-11-15T04:23:52.773Z,100015.75
2022-11-15T04:26:22.003Z,100023.28
2022-11-15T04:29:07.609Z,100023.81
2022-11-15T04:31:34.288Z,100014.31
2022-11-15T04:34:01.155Z,100032.31
2022-11-15T04:36:46.012Z,100025.41
2022-11-15T04:39:12.625Z,100024.28
2022-11-15T04:41:39.177Z,100019.28
2022-11-15T04:44:05.783Z,100013.47
2022-11-15T04:46:32.275Z,100006.88
2022-11-15T04:48:59.488Z,100003.44
2022-11-15T04:51:26.509Z,100009.56
2022-11-15T04:53:53.349Z,100017.59
2022-11-15T04:56:20.430Z,100028.88
2022-11-15T04:58:49.968Z,100017.28
2022-11-15T05:01:16.612Z,100020.72
2022-11-15T05:04:02.260Z,100023.84
2022-11-15T05:06:29.066Z,100021.84
2022-11-15T05:08:56.332Z,100020.25
2022-11-15T05:11:23.504Z,100023.00
2022-11-15T05:13:50.252Z,100014.50
2022-11-15T05:16:16.789Z,100025.19
2022-11-15T05:18:43.311Z,100033.16
2022-11-15T05:21:15.671Z,100032.31
2022-11-15T05:23:42.512Z,100036.72
2022-11-15T05:26:10.654Z,100032.28
2022-11-15T05:28:37.841Z,100034.28
2022-11-15T05:31:12.717Z,100031.19
2022-11-15T05:33:41.883Z,100022.63
2022-11-15T05:36:10.886Z,100018.91
2022-11-15T05:38:37.637Z,100022.28
2022-11-15T05:41:06.022Z,100023.75
2022-11-15T05:43:37.337Z,100016.03
2022-11-15T05:46:05.917Z,100011.53
2022-11-15T05:48:35.226Z,100025.97
2022-11-15T05:51:03.700Z,100025.44
2022-11-15T05:53:31.566Z,100018.41
2022-11-15T05:55:58.743Z,100013.47
2022-11-15T05:58:25.355Z,100012.38
2022-11-15T06:00:51.814Z,100009.66
2022-11-15T06:03:18.361Z,99999.84
2022-11-15T06:05:44.929Z,100003.09
2022-11-15T06:08:11.409Z,100007.34
2022-11-15T06:10:38.105Z,99999.13
2022-11-15T06:13:05.286Z,100012.38
2022-11-15T06:15:34.872Z,100022.28
2022-11-15T06:18:02.159Z,100023.75
2022-11-15T06:20:30.228Z,100020.97
2022-11-15T06:23:00.972Z,100025.19
2022-11-15T06:25:28.544Z,100021.84
2022-11-15T06:27:56.565Z,100031.78
2022-11-15T06:30:24.529Z,100030.91
2022-11-15T06:32:51.354Z,100043.50
2022-11-15T06:35:18.496Z,100046.97
2022-11-15T06:37:45.029Z,100050.38
2022-11-15T06:40:12.078Z,100057.09
2022-11-15T06:42:38.622Z,100055.41
2022-11-15T06:45:05.625Z,100052.94
2022-11-15T06:47:32.142Z,100040.44
2022-11-15T06:49:58.667Z,100043.41
2022-11-15T06:52:25.278Z,100049.31
2022-11-15T06:54:51.761Z,100045.97
2022-11-15T06:57:18.342Z,100046.03
2022-11-15T06:59:44.810Z,100041.06
2022-11-15T07:02:14.570Z,100047.06
2022-11-15T07:04:41.050Z,100049.16
2022-11-15T07:07:07.698Z,100045.88
2022-11-15T07:09:34.199Z,100052.25
2022-11-15T07:12:06.229Z,100048.56
2022-11-15T07:14:34.194Z,100056.38
2022-11-15T07:17:00.629Z,100051.69
2022-11-15T07:19:27.215Z,100044.22
2022-11-15T07:21:53.603Z,100051.69
2022-11-15T07:24:20.077Z,100042.38
2022-11-15T07:26:46.671Z,100040.97
2022-11-15T07:29:13.207Z,100044.72
2022-11-15T07:34:12.145Z,100050.97
2022-11-15T07:36:38.589Z,100061.44
2022-11-15T07:39:05.120Z,100054.63
2022-11-15T07:41:31.795Z,100047.66
2022-11-15T07:43:58.622Z,100045.72
2022-11-15T07:46:25.104Z,100041.41
2022-11-15T07:48:51.684Z,100047.91
2022-11-15T07:51:18.423Z,100036.16
2022-11-15T07:53:45.157Z,100038.97
2022-11-15T07:56:12.603Z,100043.63
2022-11-15T07:58:39.173Z,100042.63
2022-11-15T08:01:10.204Z,100045.44
2022-11-15T08:03:38.030Z,100049.59
2022-11-15T08:06:04.873Z,100041.53
2022-11-15T08:08:31.394Z,100030.53
2022-11-15T08:11:01.783Z,100036.06
2022-11-15T08:13:28.523Z,100033.09
2022-11-15T08:16:02.407Z,100019.94
2022-11-15T08:18:28.992Z,100023.72
2022-11-15T08:20:59.715Z,100023.19
2022-11-15T08:23:26.329Z,100019.47
2022-11-15T08:25:52.717Z,100030.59
2022-11-15T08:28:19.258Z,100029.81
2022-11-15T08:30:46.628Z,100034.72
2022-11-15T08:33:15.029Z,100039.69
2022-11-15T08:35:45.215Z,100035.63
2022-11-15T08:38:11.886Z,100031.28
2022-11-15T08:40:38.613Z,100039.16
2022-11-15T08:43:05.202Z,100052.53
2022-11-15T08:45:31.973Z,100050.88
2022-11-15T08:47:58.875Z,100039.38
2022-11-15T08:50:25.466Z,100031.56
2022-11-15T08:52:51.914Z,100025.31
2022-11-15T08:55:18.479Z,100023.56
2022-11-15T08:57:45.393Z,100023.22
2022-11-15T09:00:13.323Z,100023.69
2022-11-15T09:02:40.932Z,100018.31
2022-11-15T09:05:08.426Z,100012.66
2022-11-15T09:07:35.258Z,100015.13
2022-11-15T09:10:01.803Z,100013.00
2022-11-15T09:12:28.686Z,100020.34
2022-11-15T09:14:55.781Z,100023.88
2022-11-15T09:17:24.858Z,100026.06
2022-11-15T09:19:51.972Z,100021.53
2022-11-15T09:22:18.917Z,100023.72
2022-11-15T09:24:45.706Z,100025.13
2022-11-15T09:27:13.056Z,100026.75
2022-11-15T09:29:39.726Z,100021.66
2022-11-15T09:32:06.500Z,100028.47
2022-11-15T09:34:33.072Z,100023.59
2022-11-15T09:36:59.461Z,100016.06
2022-11-15T09:39:26.015Z,100009.78
2022-11-15T09:42:10.003Z,100017.19
2022-11-15T09:44:46.088Z,100014.16
2022-11-15T09:47:32.851Z,100003.59
2022-11-15T09:50:02.659Z,100006.06
2022-11-15T09:52:29.375Z,99996.03
2022-11-15T09:54:56.474Z,100003.59
2022-11-15T09:57:32.293Z,100002.81
2022-11-15T10:03:12.457Z,99992.75
2022-11-15T10:05:50.668Z,99997.13
2022-11-15T10:08:46.476Z,99996.56
2022-11-15T10:11:37.648Z,100002.25
2022-11-15T10:14:13.615Z,100000.34
2022-11-15T10:17:16.068Z,99990.56
2022-11-15T10:19:51.788Z,99984.31
2022-11-15T10:22:24.032Z,99985.13
2022-11-15T10:25:04.427Z,99985.91
2022-11-15T10:27:31.295Z,99993.78
2022-11-15T10:29:57.801Z,99990.56
2022-11-15T10:32:24.254Z,99986.13
2022-11-15T10:34:51.470Z,99992.16
2022-11-15T10:37:31.773Z,99985.66
2022-11-15T10:40:17.294Z,99992.72
2022-11-15T10:42:43.865Z,99988.13
2022-11-15T10:45:27.872Z,99988.91
2022-11-15T10:47:54.557Z,99991.69
2022-11-15T10:50:33.089Z,99986.25
2022-11-15T10:53:03.689Z,99984.91
2022-11-15T10:55:32.873Z,99976.19
2022-11-15T10:58:21.018Z,99973.75
2022-11-15T11:00:47.701Z,99972.16
2022-11-15T11:03:29.572Z,99972.69
2022-11-15T11:06:06.600Z,99976.50
2022-11-15T11:08:33.826Z,99957.19
2022-11-15T11:11:03.630Z,99964.50
2022-11-15T11:13:34.556Z,99962.34
2022-11-15T11:16:15.381Z,99953.66
2022-11-15T11:18:55.844Z,99943.34
2022-11-15T11:21:55.376Z,99944.44
2022-11-15T11:24:41.596Z,99955.28
2022-11-15T11:27:10.850Z,99946.06
2022-11-15T11:30:05.581Z,99949.31
2022-11-15T11:32:55.463Z,99945.25
2022-11-15T11:35:27.994Z,99948.47
2022-11-15T11:38:05.193Z,99950.13
2022-11-15T11:40:38.238Z,99946.59
2022-11-15T11:43:08.461Z,99952.56
2022-11-15T11:45:51.682Z,99943.63
2022-11-15T11:48:27.376Z,99946.59
2022-11-15T11:50:58.894Z,99938.47
2022-11-15T11:53:48.457Z,99944.97
2022-11-15T11:56:33.861Z,99937.66
2022-11-15T11:59:27.137Z,99932.22
2022-11-15T12:01:54.105Z,99928.72
2022-11-15T12:04:43.891Z,99929.78
2022-11-15T12:07:21.426Z,99921.66
2022-11-15T12:10:04.174Z,99927.06
2022-11-15T12:12:45.560Z,99922.19
2022-11-15T12:15:25.697Z,99911.91
2022-11-15T12:17:53.171Z,99912.41
2022-11-15T12:20:29.513Z,99899.94
2022-11-15T12:23:02.306Z,99894.22
2022-11-15T12:25:52.949Z,99891.25
2022-11-15T12:28:35.278Z,99892.91
2022-11-15T12:31:12.945Z,99886.38
2022-11-15T12:33:43.308Z,99881.22
2022-11-15T12:36:41.248Z,99888.25
2022-11-15T12:39:12.411Z,99887.47
2022-11-15T12:41:41.377Z,99885.25
2022-11-15T12:44:44.579Z,99880.88
2022-11-15T12:47:11.059Z,99874.66
2022-11-15T12:49:37.486Z,99875.63
2022-11-15T12:52:06.768Z,99869.75
2022-11-15T12:54:33.399Z,99862.69
2022-11-15T12:57:08.914Z,99859.16
2022-11-15T12:59:55.873Z,99852.88
2022-11-15T13:02:26.547Z,99849.94
2022-11-15T13:04:56.162Z,99843.16
2022-11-15T13:07:59.296Z,99840.06
2022-11-15T13:10:28.644Z,99840.66
2022-11-15T13:12:57.345Z,99838.00
2022-11-15T13:15:39.552Z,99836.31
2022-11-15T13:18:34.097Z,99839.84
2022-11-15T13:21:02.942Z,99833.38
2022-11-15T13:23:29.956Z,99826.31
2022-11-15T13:26:19.026Z,99822.22
2022-11-15T13:28:50.460Z,99828.19
2022-11-15T13:31:31.728Z,99821.41
2022-11-15T13:34:02.505Z,99823.28
2022-11-15T13:36:36.918Z,99821.94
2022-11-15T13:39:28.394Z,99811.31
2022-11-15T13:41:55.458Z,99806.22
2022-11-15T13:44:24.755Z,99799.97
2022-11-15T13:47:03.205Z,99793.13
2022-11-15T13:49:32.446Z,99790.22
2022-11-15T13:52:02.860Z,99802.69
2022-11-15T13:54:39.423Z,99787.19
2022-11-15T13:57:13.820Z,99788.53
2022-11-15T13:59:54.062Z,99788.22
2022-11-15T14:02:26.875Z,99782.50
2022-11-15T14:04:59.228Z,99781.63
2022-11-15T14:07:28.918Z,99785.16
2022-11-15T14:09:56.296Z,99797.88
2022-11-15T14:12:32.892Z,99791.56
2022-11-15T14:15:02.090Z,99795.91
2022-11-15T14:17:31.702Z,99787.47
2022-11-15T14:19:59.050Z,99787.25
2022-11-15T14:22:27.157Z,99784.53
2022-11-15T14:25:08.781Z,99776.88
2022-11-15T14:27:35.589Z,99781.25
2022-11-15T14:30:02.283Z,99770.13
2022-11-15T14:32:31.287Z,99775.28
2022-11-15T14:35:03.087Z,99775.53
2022-11-15T14:37:34.153Z,99779.63
2022-11-15T14:40:00.809Z,99767.66
2022-11-15T14:42:27.390Z,99768.25
2022-11-15T14:44:54.129Z,99771.28
2022-11-15T14:47:20.995Z,99766.03
2022-11-15T14:49:47.952Z,99767.16
2022-11-15T14:52:36.297Z,99757.88
2022-11-15T14:55:12.695Z,99755.22
2022-11-15T14:57:39.241Z,99749.31
2022-11-15T15:00:06.211Z,99756.69
2022-11-15T15:02:33.797Z,99746.59
2022-11-15T15:05:02.187Z,99747.19
2022-11-15T15:07:28.739Z,99745.28
2022-11-15T15:10:11.302Z,99749.19
2022-11-15T15:12:42.201Z,99750.50
2022-11-15T15:15:20.852Z,99742.06
2022-11-15T15:17:47.426Z,99738.59
2022-11-15T15:20:14.038Z,99736.75
2022-11-15T15:22:40.813Z,99738.84
2022-11-15T15:25:22.532Z,99737.75
2022-11-15T15:27:49.710Z,99726.69
2022-11-15T15:30:16.297Z,99724.53
2022-11-15T15:32:42.765Z,99723.50
2022-11-15T15:35:13.541Z,99728.84
2022-11-15T15:37:40.518Z,99722.38
2022-11-15T15:40:22.325Z,99708.22
2022-11-15T15:42:49.830Z,99715.88
2022-11-15T15:45:17.661Z,99712.63
2022-11-15T15:47:45.157Z,99710.19
2022-11-15T15:50:20.982Z,99704.47
2022-11-15T15:52:47.536Z,99708.56
2022-11-15T15:55:13.992Z,99708.09
2022-11-15T15:57:40.698Z,99690.66
2022-11-15T16:00:07.858Z,99693.69
2022-11-15T16:02:39.260Z,99690.41
2022-11-15T16:05:07.914Z,99685.00
2022-11-15T16:07:34.761Z,99689.91
2022-11-15T16:10:01.576Z,99695.88
2022-11-15T16:12:35.670Z,99690.72
2022-11-15T16:15:03.727Z,99684.53
2022-11-15T16:17:35.113Z,99669.59
2022-11-15T16:20:02.339Z,99674.75
2022-11-15T16:22:30.228Z,99669.88
2022-11-15T16:24:57.421Z,99666.91
2022-11-15T16:27:24.547Z,99660.69
2022-11-15T16:29:51.095Z,99653.38
2022-11-15T16:32:17.855Z,99656.78
2022-11-15T16:34:48.773Z,99663.72
2022-11-15T16:37:34.031Z,99661.50
2022-11-15T16:40:01.241Z,99658.88
2022-11-15T16:42:28.078Z,99658.09
2022-11-15T16:44:54.470Z,99655.25
2022-11-15T16:47:21.303Z,99665.13
2022-11-15T16:49:48.067Z,99666.81
2022-11-15T16:52:17.618Z,99664.34
2022-11-15T16:54:47.632Z,99651.63
2022-11-15T16:57:14.029Z,99663.19
2022-11-15T16:59:40.592Z,99661.41
2022-11-15T17:02:11.799Z,99655.34
2022-11-15T17:04:38.391Z,99662.50
2022-11-15T17:07:04.869Z,99658.63
2022-11-15T17:09:33.044Z,99649.78
2022-11-15T17:11:59.582Z,99651.97
2022-11-15T17:14:25.987Z,99650.56
2022-11-15T17:16:52.564Z,99639.19
2022-11-15T17:19:20.412Z,99647.03
2022-11-15T17:21:47.218Z,99639.72
2022-11-15T17:24:13.888Z,99632.44
2022-11-15T17:26:41.104Z,99633.22
2022-11-15T17:29:08.198Z,99641.38
2022-11-15T17:31:39.027Z,99631.34
2022-11-15T17:34:06.805Z,99634.91
2022-11-15T17:36:33.927Z,99634.88
2022-11-15T17:39:00.602Z,99622.72
2022-11-15T17:41:28.738Z,99634.34
2022-11-15T17:44:00.058Z,99631.09
2022-11-15T17:46:28.067Z,99636.78
2022-11-15T17:48:56.253Z,99632.72
2022-11-15T17:51:24.176Z,99629.75
2022-11-15T17:53:51.571Z,99625.66
2022-11-15T17:56:20.305Z,99618.66
2022-11-15T17:58:55.016Z,99622.97
2022-11-15T18:01:21.548Z,99625.13
2022-11-15T18:03:48.521Z,99613.50
2022-11-15T18:06:16.128Z,99609.44
2022-11-15T18:08:45.162Z,99610.53
2022-11-15T18:11:16.141Z,99620.28
2022-11-15T18:13:51.936Z,99613.78
2022-11-15T18:16:21.869Z,99618.91
2022-11-15T18:18:48.992Z,99612.69
2022-11-15T18:21:18.837Z,99614.84
2022-11-15T18:23:47.341Z,99609.13
2022-11-15T18:26:15.877Z,99613.75
2022-11-15T18:28:46.902Z,99607.25
2022-11-15T18:31:19.365Z,99603.72
2022-11-15T18:33:46.158Z,99598.06
2022-11-15T18:36:14.129Z,99598.09
2022-11-15T18:38:40.761Z,99588.03
2022-11-15T18:41:12.040Z,99588.59
2022-11-15T18:43:39.783Z,99585.03
2022-11-15T18:46:14.473Z,99582.09
2022-11-15T18:48:42.590Z,99575.81
2022-11-15T18:51:22.520Z,99569.31
2022-11-15T18:53:52.118Z,99575.53
2022-11-15T18:56:20.674Z,99570.41
2022-11-15T18:58:49.605Z,99563.66
2022-11-15T19:01:25.245Z,99555.78
2022-11-15T19:03:53.954Z,99563.34
2022-11-15T19:06:25.833Z,99563.38
2022-11-15T19:08:54.804Z,99568.75
2022-11-15T19:11:31.736Z,99563.38
2022-11-15T19:14:03.290Z,99559.28
2022-11-15T19:16:33.274Z,99566.59
2022-11-15T19:19:08.548Z,99564.44
2022-11-15T19:21:35.147Z,99555.78
2022-11-15T19:24:01.977Z,99562.34
2022-11-15T19:26:29.651Z,99557.41
2022-11-15T19:28:58.811Z,99553.34
2022-11-15T19:31:26.714Z,99546.84
2022-11-15T19:33:53.958Z,99541.16
2022-11-15T19:36:28.958Z,99539.25
2022-11-15T19:38:56.331Z,99541.66
2022-11-15T19:41:26.691Z,99535.47
2022-11-15T19:43:53.820Z,99532.47
2022-11-15T19:46:23.720Z,99529.78
2022-11-15T19:48:51.557Z,99515.72
2022-11-15T19:51:24.979Z,99517.63
2022-11-15T19:53:57.688Z,99514.09
2022-11-15T19:56:24.556Z,99521.69
2022-11-15T19:58:55.822Z,99517.34
2022-11-15T20:01:30.346Z,99517.88
2022-11-15T20:03:59.595Z,99514.63
2022-11-15T20:06:32.351Z,99514.63
2022-11-15T20:08:59.921Z,99508.94
2022-11-15T20:11:27.212Z,99514.34
2022-11-15T20:14:02.293Z,99512.47
2022-11-15T20:16:29.879Z,99506.50
2022-11-15T20:18:56.448Z,99510.28
2022-11-15T20:21:23.052Z,99509.81
2022-11-15T20:23:51.087Z,99508.16
2022-11-15T20:26:18.936Z,99517.88
2022-11-15T20:28:45.675Z,99520.00
2022-11-15T20:31:13.124Z,99522.16
2022-11-15T20:33:40.117Z,99515.16
2022-11-15T20:36:10.249Z,99525.97
2022-11-15T20:38:37.499Z,99528.09
2022-11-15T20:41:08.644Z,99528.66
2022-11-15T20:43:35.283Z,99531.88
2022-11-15T20:46:01.696Z,99526.03
2022-11-15T20:48:28.394Z,99525.13
2022-11-15T20:51:03.665Z,99522.25
2022-11-15T20:53:31.616Z,99511.88
2022-11-15T20:56:04.466Z,99508.09
2022-11-15T20:58:31.292Z,99516.75
2022-11-15T21:00:58.329Z,99515.09
2022-11-15T21:03:24.984Z,99511.84
2022-11-15T21:05:54.525Z,99508.69
2022-11-15T21:08:21.217Z,99511.34
2022-11-15T21:11:08.178Z,99512.22
2022-11-15T21:13:36.717Z,99515.09
2022-11-15T21:16:06.766Z,99516.75
2022-11-15T21:18:33.563Z,99504.56
2022-11-15T21:21:05.198Z,99503.22
2022-11-15T21:23:31.849Z,99494.53
2022-11-15T21:25:58.555Z,99488.69
2022-11-15T21:28:25.265Z,99484.28
2022-11-15T21:30:52.419Z,99480.56
2022-11-15T21:33:18.965Z,99480.50
2022-11-15T21:35:45.528Z,99465.34
2022-11-15T21:38:12.034Z,99469.13
2022-11-15T21:40:38.740Z,99467.22
2022-11-15T21:43:05.142Z,99466.75
2022-11-15T21:45:31.710Z,99457.22
2022-11-15T21:47:58.235Z,99466.41
2022-11-15T21:50:24.665Z,99448.88
2022-11-15T21:52:51.130Z,99461.53
2022-11-15T21:55:17.579Z,99448.31
2022-11-15T21:57:44.022Z,99440.47
2022-11-15T22:00:29.619Z,99444.25
